sensor_id;sensor_type;location;lat;lon;timestamp;pressure;altitude;pressure_sealevel;temperature;humidity
72925;BME280;61070;50.794;7.054;2022-12-05T00:03:45;100851.69;;;2.67;100.00
72925;BME280;61070;50.794;7.054;2022-12-05T00:06:11;100849.16;;;2.70;100.00
72925;BME280;61070;50.794;7.054;2022-12-05T00:08:36;100852.63;;;2.69;100.00
72925;BME280;61070;50.794;7.054;2022-12-05T00:11:02;100852.63;;;2.70;100.00
72925;BME280;61070;50.794;7.054;2022-12-05T00:13:27;100848.28;;;2.71;100.00
72925;BME280;61070;50.794;7.054;2022-12-05T00:15:53;100851.75;;;2.70;100.00
72925;BME280;61070;50.794;7.054;2022-12-05T00:18:18;100849.06;;;2.65;100.00
72925;BME280;61070;50.794;7.054;2022-12-05T00:20:45;100854.25;;;2.63;100.00
72925;BME280;61070;50.794;7.054;2022-12-05T00:23:10;100855.16;;;2.66;100.00
72925;BME280;61070;50.794;7.054;2022-12-05T00:25:36;100858.69;;;2.68;100.00
72925;BME280;61070;50.794;7.054;2022-12-05T00:28:01;100858.63;;;2.65;100.00
72925;BME280;61070;50.794;7.054;2022-12-05T00:30:26;100861.25;;;2.65;100.00
72925;BME280;61070;50.794;7.054;2022-12-05T00:32:52;100863.81;;;2.61;100.00
72925;BME280;61070;50.794;7.054;2022-12-05T00:35:17;100869.09;;;2.65;100.00
72925;BME280;61070;50.794;7.054;2022-12-05T00:37:43;100861.13;;;2.60;100.00
72925;BME280;61070;50.794;7.054;2022-12-05T00:40:08;100862.03;;;2.60;100.00
72925;BME280;61070;50.794;7.054;2022-12-05T00:42:34;100865.41;;;2.56;100.00
72925;BME280;61070;50.794;7.054;2022-12-05T00:44:59;100862.78;;;2.56;100.00
72925;BME280;61070;50.794;7.054;2022-12-05T00:47:24;100855.84;;;2.57;100.00
72925;BME280;61070;50.794;7.054;2022-12-05T00:49:49;100856.72;;;2.57;100.00
72925;BME280;61070;50.794;7.054;2022-12-05T00:52:15;100849.75;;;2.58;100.00
72925;BME280;61070;50.794;7.054;2022-12-05T00:54:40;100857.69;;;2.61;100.00
72925;BME280;61070;50.794;7.054;2022-12-05T00:57:05;100852.47;;;2.61;100.00
72925;BME280;61070;50.794;7.054;2022-12-05T00:59:30;100855.91;;;2.60;100.00
72925;BME280;61070;50.794;7.054;2022-12-05T01:01:56;100851.59;;;2.60;100.00
72925;BME280;61070;50.794;7.054;2022-12-05T01:04:23;100855.97;;;2.61;100.00
72925;BME280;61070;50.794;7.054;2022-12-05T01:06:49;100862.03;;;2.60;100.00
72925;BME280;61070;50.794;7.054;2022-12-05T01:09:18;100857.59;;;2.58;100.00
72925;BME280;61070;50.794;7.054;2022-12-05T01:11:44;100862.13;;;2.65;100.00
72925;BME280;61070;50.794;7.054;2022-12-05T01:14:11;100861.19;;;2.61;100.00
72925;BME280;61070;50.794;7.054;2022-12-05T01:16:38;100864.66;;;2.60;100.00
72925;BME280;61070;50.794;7.054;2022-12-05T01:19:08;100864.66;;;2.60;100.00
72925;BME280;61070;50.794;7.054;2022-12-05T01:21:34;100861.13;;;2.60;100.00
72925;BME280;61070;50.794;7.054;2022-12-05T01:24:00;100871.59;;;2.60;100.00
72925;BME280;61070;50.794;7.054;2022-12-05T01:26:25;100874.09;;;2.55;100.00
72925;BME280;61070;50.794;7.054;2022-12-05T01:28:50;100881.13;;;2.58;100.00
72925;BME280;61070;50.794;7.054;2022-12-05T01:31:28;100874.13;;;2.57;100.00
72925;BME280;61070;50.794;7.054;2022-12-05T01:33:55;100884.63;;;2.58;100.00
72925;BME280;61070;50.794;7.054;2022-12-05T01:36:21;100882.91;;;2.59;100.00
72925;BME280;61070;50.794;7.054;2022-12-05T01:38:47;100896.03;;;2.60;100.00
72925;BME280;61070;50.794;7.054;2022-12-05T01:41:16;100889.81;;;2.57;100.00
72925;BME280;61070;50.794;7.054;2022-12-05T01:44:01;100894.22;;;2.59;100.00
72925;BME280;61070;50.794;7.054;2022-12-05T01:46:30;100897.63;;;2.55;100.00
72925;BME280;61070;50.794;7.054;2022-12-05T01:49:03;100898.56;;;2.57;100.00
72925;BME280;61070;50.794;7.054;2022-12-05T01:51:30;100896.03;;;2.60;100.00
72925;BME280;61070;50.794;7.054;2022-12-05T01:53:57;100905.53;;;2.58;100.00
72925;BME280;61070;50.794;7.054;2022-12-05T01:56:23;100912.41;;;2.53;100.00
72925;BME280;61070;50.794;7.054;2022-12-05T01:58:50;100912.25;;;2.47;100.00
72925;BME280;61070;50.794;7.054;2022-12-05T02:01:17;100911.28;;;2.42;100.00
72925;BME280;61070;50.794;7.054;2022-12-05T02:03:43;100907.63;;;2.37;100.00
72925;BME280;61070;50.794;7.054;2022-12-05T02:06:12;100907.56;;;2.34;100.00
72925;BME280;61070;50.794;7.054;2022-12-05T02:08:39;100906.75;;;2.37;100.00
72925;BME280;61070;50.794;7.054;2022-12-05T02:11:06;100905.59;;;2.25;100.00
72925;BME280;61070;50.794;7.054;2022-12-05T02:14:04;100903.72;;;2.18;100.00
72925;BME280;61070;50.794;7.054;2022-12-05T02:22:21;100906.19;;;2.14;100.00
72925;BME280;61070;50.794;7.054;2022-12-05T02:25:22;100905.44;;;2.18;100.00
72925;BME280;61070;50.794;7.054;2022-12-05T02:30:39;100907.06;;;2.14;100.00
72925;BME280;61070;50.794;7.054;2022-12-05T02:33:17;100908.75;;;2.12;100.00
72925;BME280;61070;50.794;7.054;2022-12-05T02:36:01;100908.66;;;2.08;100.00
72925;BME280;61070;50.794;7.054;2022-12-05T02:43:41;100910.63;;;1.83;100.00
72925;BME280;61070;50.794;7.054;2022-12-05T02:46:13;100908.75;;;1.79;100.00
72925;BME280;61070;50.794;7.054;2022-12-05T02:48:42;100910.41;;;1.75;100.00
72925;BME280;61070;50.794;7.054;2022-12-05T02:51:12;100905.75;;;1.64;100.00
72925;BME280;61070;50.794;7.054;2022-12-05T02:53:39;100908.44;;;1.67;100.00
72925;BME280;61070;50.794;7.054;2022-12-05T02:56:06;100905.88;;;1.68;100.00
72925;BME280;61070;50.794;7.054;2022-12-05T02:58:39;100911.63;;;1.57;100.00
72925;BME280;61070;50.794;7.054;2022-12-05T03:01:06;100899.53;;;1.59;100.00
72925;BME280;61070;50.794;7.054;2022-12-05T03:03:32;100908.97;;;1.55;100.00
72925;BME280;61070;50.794;7.054;2022-12-05T03:06:08;100906.28;;;1.52;100.00
72925;BME280;61070;50.794;7.054;2022-12-05T03:08:53;100908.66;;;1.43;100.00
72925;BME280;61070;50.794;7.054;2022-12-05T03:11:20;100911.03;;;1.35;100.00
72925;BME280;61070;50.794;7.054;2022-12-05T03:13:51;100905.72;;;1.32;100.00
72925;BME280;61070;50.794;7.054;2022-12-05T03:16:29;100912.63;;;1.30;100.00
72925;BME280;61070;50.794;7.054;2022-12-05T03:19:02;100906.31;;;1.22;100.00
72925;BME280;61070;50.794;7.054;2022-12-05T03:23:59;100914.00;;;1.17;100.00
72925;BME280;61070;50.794;7.054;2022-12-05T03:26:35;100907.16;;;1.21;100.00
72925;BME280;61070;50.794;7.054;2022-12-05T03:32:13;100921.00;;;1.19;100.00
72925;BME280;61070;50.794;7.054;2022-12-05T03:37:35;100934.88;;;1.17;100.00
72925;BME280;61070;50.794;7.054;2022-12-05T03:43:21;100926.53;;;1.29;100.00
72925;BME280;61070;50.794;7.054;2022-12-05T03:45:48;100936.75;;;1.23;100.00
72925;BME280;61070;50.794;7.054;2022-12-05T03:50:55;100932.28;;;1.17;100.00
72925;BME280;61070;50.794;7.054;2022-12-05T03:53:26;100944.56;;;1.22;100.00
72925;BME280;61070;50.794;7.054;2022-12-05T03:56:04;100940.97;;;1.18;100.00
72925;BME280;61070;50.794;7.054;2022-12-05T03:58:40;100943.63;;;1.20;100.00
72925;BME280;61070;50.794;7.054;2022-12-05T04:01:09;100945.22;;;1.14;100.00
72925;BME280;61070;50.794;7.054;2022-12-05T04:03:40;100939.84;;;1.10;100.00
72925;BME280;61070;50.794;7.054;2022-12-05T04:06:21;100941.63;;;1.11;100.00
72925;BME280;61070;50.794;7.054;2022-12-05T04:09:02;100936.22;;;1.05;100.00
72925;BME280;61070;50.794;7.054;2022-12-05T04:11:33;100945.00;;;1.07;100.00
72925;BME280;61070;50.794;7.054;2022-12-05T04:14:29;100945.88;;;1.07;100.00
72925;BME280;61070;50.794;7.054;2022-12-05T04:17:01;100956.25;;;1.06;100.00
72925;BME280;61070;50.794;7.054;2022-12-05T04:19:47;100952.72;;;1.04;100.00
72925;BME280;61070;50.794;7.054;2022-12-05T04:22:34;100951.03;;;1.06;100.00
72925;BME280;61070;50.794;7.054;2022-12-05T04:25:02;100948.34;;;1.03;100.00
72925;BME280;61070;50.794;7.054;2022-12-05T04:30:38;100947.31;;;0.98;100.00
72925;BME280;61070;50.794;7.054;2022-12-05T04:33:14;100949.00;;;0.96;100.00
72925;BME280;61070;50.794;7.054;2022-12-05T04:35:45;100961.19;;;0.97;100.00
72925;BME280;61070;50.794;7.054;2022-12-05T04:38:26;100955.03;;;0.95;100.00
72925;BME280;61070;50.794;7.054;2022-12-05T04:40:58;100961.28;;;1.00;100.00
72925;BME280;61070;50.794;7.054;2022-12-05T04:43:26;100962.97;;;0.98;100.00
72925;BME280;61070;50.794;7.054;2022-12-05T04:45:54;100963.13;;;1.02;100.00
72925;BME280;61070;50.794;7.054;2022-12-05T04:48:23;100961.22;;;0.98;100.00
72925;BME280;61070;50.794;7.054;2022-12-05T04:50:50;100961.31;;;1.01;100.00
72925;BME280;61070;50.794;7.054;2022-12-05T04:53:18;100964.94;;;1.05;100.00
72925;BME280;61070;50.794;7.054;2022-12-05T04:55:48;100958.78;;;1.03;100.00
72925;BME280;61070;50.794;7.054;2022-12-05T04:58:19;100961.56;;;1.09;100.00
72925;BME280;61070;50.794;7.054;2022-12-05T05:00:50;100966.13;;;1.16;100.00
72925;BME280;61070;50.794;7.054;2022-12-05T05:03:34;100963.38;;;1.11;100.00
72925;BME280;61070;50.794;7.054;2022-12-05T05:06:02;100958.34;;;1.17;100.00
72925;BME280;61070;50.794;7.054;2022-12-05T05:08:29;100959.13;;;1.13;100.00
72925;BME280;61070;50.794;7.054;2022-12-05T05:13:40;100970.44;;;1.14;100.00
72925;BME280;61070;50.794;7.054;2022-12-05T05:16:05;100963.41;;;1.13;100.00
72925;BME280;61070;50.794;7.054;2022-12-05T05:18:31;100963.41;;;1.13;100.00
72925;BME280;61070;50.794;7.054;2022-12-05T05:20:56;100959.03;;;1.12;100.00
72925;BME280;61070;50.794;7.054;2022-12-05T05:23:22;100970.47;;;1.15;100.00
72925;BME280;61070;50.794;7.054;2022-12-05T05:25:52;100968.88;;;1.21;100.00
72925;BME280;61070;50.794;7.054;2022-12-05T05:28:17;100962.69;;;1.17;100.00
72925;BME280;61070;50.794;7.054;2022-12-05T05:30:43;100973.16;;;1.19;100.00
72925;BME280;61070;50.794;7.054;2022-12-05T05:33:08;100970.50;;;1.17;100.00
72925;BME280;61070;50.794;7.054;2022-12-05T05:35:36;100979.19;;;1.16;100.00
72925;BME280;61070;50.794;7.054;2022-12-05T05:38:02;100973.81;;;1.11;100.00
72925;BME280;61070;50.794;7.054;2022-12-05T05:40:28;100978.19;;;1.12;100.00
72925;BME280;61070;50.794;7.054;2022-12-05T05:42:53;100968.63;;;1.13;100.00
72925;BME280;61070;50.794;7.054;2022-12-05T05:45:18;100973.03;;;1.14;100.00
72925;BME280;61070;50.794;7.054;2022-12-05T05:47:44;100975.69;;;1.15;100.00
72925;BME280;61070;50.794;7.054;2022-12-05T05:50:09;100960.91;;;1.16;100.00
72925;BME280;61070;50.794;7.054;2022-12-05T05:52:36;100970.50;;;1.17;100.00
72925;BME280;61070;50.794;7.054;2022-12-05T05:55:03;100972.19;;;1.15;100.00
72925;BME280;61070;50.794;7.054;2022-12-05T05:57:29;100971.44;;;1.19;100.00
72925;BME280;61070;50.794;7.054;2022-12-05T05:59:55;100975.16;;;1.27;100.00
72925;BME280;61070;50.794;7.054;2022-12-05T06:02:20;100977.66;;;1.24;100.00
72925;BME280;61070;50.794;7.054;2022-12-05T06:04:46;100987.38;;;1.28;100.00
72925;BME280;61070;50.794;7.054;2022-12-05T06:07:11;100990.91;;;1.30;100.00
72925;BME280;61070;50.794;7.054;2022-12-05T06:09:36;100990.91;;;1.30;100.00
72925;BME280;61070;50.794;7.054;2022-12-05T06:12:02;100993.66;;;1.35;100.00
72925;BME280;61070;50.794;7.054;2022-12-05T06:14:27;101003.13;;;1.31;100.00
72925;BME280;61070;50.794;7.054;2022-12-05T06:16:53;100999.66;;;1.32;100.00
72925;BME280;61070;50.794;7.054;2022-12-05T06:19:18;100998.75;;;1.30;100.00
72925;BME280;61070;50.794;7.054;2022-12-05T06:21:43;100993.59;;;1.33;100.00
72925;BME280;61070;50.794;7.054;2022-12-05T06:24:08;100994.44;;;1.32;100.00
72925;BME280;61070;50.794;7.054;2022-12-05T06:26:34;100994.53;;;1.35;100.00
72925;BME280;61070;50.794;7.054;2022-12-05T06:28:59;100994.53;;;1.35;100.00
72925;BME280;61070;50.794;7.054;2022-12-05T06:31:25;101002.31;;;1.34;100.00
72925;BME280;61070;50.794;7.054;2022-12-05T06:34:01;100996.22;;;1.33;100.00
72925;BME280;61070;50.794;7.054;2022-12-05T06:36:27;100999.47;;;1.25;100.00
72925;BME280;61070;50.794;7.054;2022-12-05T06:38:55;101007.41;;;1.29;100.00
72925;BME280;61070;50.794;7.054;2022-12-05T06:41:20;100999.28;;;1.20;100.00
72925;BME280;61070;50.794;7.054;2022-12-05T06:43:48;101008.16;;;1.25;100.00
72925;BME280;61070;50.794;7.054;2022-12-05T06:46:14;101000.44;;;1.28;100.00
72925;BME280;61070;50.794;7.054;2022-12-05T06:48:40;101007.50;;;1.32;100.00
72925;BME280;61070;50.794;7.054;2022-12-05T06:51:09;101005.03;;;1.37;100.00
72925;BME280;61070;50.794;7.054;2022-12-05T06:53:34;101017.97;;;1.34;100.00
72925;BME280;61070;50.794;7.054;2022-12-05T06:56:02;101016.50;;;1.42;100.00
72925;BME280;61070;50.794;7.054;2022-12-05T06:58:28;101016.38;;;1.37;100.00
72925;BME280;61070;50.794;7.054;2022-12-05T07:00:54;101020.78;;;1.40;100.00
72925;BME280;61070;50.794;7.054;2022-12-05T07:03:38;101024.28;;;1.40;100.00
72925;BME280;61070;50.794;7.054;2022-12-05T07:06:05;101021.66;;;1.40;100.00
72925;BME280;61070;50.794;7.054;2022-12-05T07:08:31;101017.13;;;1.35;100.00
72925;BME280;61070;50.794;7.054;2022-12-05T07:10:57;101033.75;;;1.37;100.00
72925;BME280;61070;50.794;7.054;2022-12-05T07:13:22;101033.91;;;1.43;100.00
72925;BME280;61070;50.794;7.054;2022-12-05T07:15:48;101032.19;;;1.43;100.00
72925;BME280;61070;50.794;7.054;2022-12-05T07:18:15;101030.38;;;1.41;100.00
72925;BME280;61070;50.794;7.054;2022-12-05T07:20:41;101036.47;;;1.41;100.00
72925;BME280;61070;50.794;7.054;2022-12-05T07:23:07;101046.22;;;1.47;100.00
72925;BME280;61070;50.794;7.054;2022-12-05T07:25:33;101046.41;;;1.53;100.00
72925;BME280;61070;50.794;7.054;2022-12-05T07:27:58;101041.31;;;1.58;100.00
72925;BME280;61070;50.794;7.054;2022-12-05T07:30:23;101049.97;;;1.57;100.00
72925;BME280;61070;50.794;7.054;2022-12-05T07:32:49;101043.16;;;1.60;100.00
72925;BME280;61070;50.794;7.054;2022-12-05T07:35:14;101054.47;;;1.61;100.00
72925;BME280;61070;50.794;7.054;2022-12-05T07:37:39;101057.25;;;1.67;100.00
72925;BME280;61070;50.794;7.054;2022-12-05T07:40:05;101058.19;;;1.69;100.00
72925;BME280;61070;50.794;7.054;2022-12-05T07:42:30;101066.13;;;1.72;100.00
72925;BME280;61070;50.794;7.054;2022-12-05T07:44:56;101065.31;;;1.74;100.00
72925;BME280;61070;50.794;7.054;2022-12-05T07:47:21;101069.75;;;1.77;100.00
72925;BME280;61070;50.794;7.054;2022-12-05T07:49:46;101070.59;;;1.76;100.00
72925;BME280;61070;50.794;7.054;2022-12-05T07:52:12;101066.13;;;1.72;100.00
72925;BME280;61070;50.794;7.054;2022-12-05T07:54:37;101066.28;;;1.78;100.00
72925;BME280;61070;50.794;7.054;2022-12-05T07:57:03;101063.56;;;1.73;100.00
72925;BME280;61070;50.794;7.054;2022-12-05T07:59:28;101070.66;;;1.79;100.00
72925;BME280;61070;50.794;7.054;2022-12-05T08:01:53;101072.56;;;1.83;100.00
72925;BME280;61070;50.794;7.054;2022-12-05T08:04:19;101076.94;;;1.84;100.00
72925;BME280;61070;50.794;7.054;2022-12-05T08:06:44;101068.09;;;1.81;100.00
72925;BME280;61070;50.794;7.054;2022-12-05T08:09:09;101070.63;;;1.78;100.00
72925;BME280;61070;50.794;7.054;2022-12-05T08:11:35;101073.25;;;1.78;100.00
72925;BME280;61070;50.794;7.054;2022-12-05T08:14:02;101077.41;;;1.71;100.00
72925;BME280;61070;50.794;7.054;2022-12-05T08:16:28;101074.69;;;1.68;100.00
72925;BME280;61070;50.794;7.054;2022-12-05T08:19:02;101077.28;;;1.68;100.00
72925;BME280;61070;50.794;7.054;2022-12-05T08:21:28;101077.66;;;1.80;100.00
72925;BME280;61070;50.794;7.054;2022-12-05T08:23:54;101077.78;;;1.83;100.00
72925;BME280;61070;50.794;7.054;2022-12-05T08:26:27;101085.38;;;1.75;100.00
72925;BME280;61070;50.794;7.054;2022-12-05T08:29:04;101093.16;;;1.74;100.00
72925;BME280;61070;50.794;7.054;2022-12-05T08:31:32;101093.34;;;1.80;100.00
72925;BME280;61070;50.794;7.054;2022-12-05T08:33:59;101095.91;;;1.79;100.00
72925;BME280;61070;50.794;7.054;2022-12-05T08:36:25;101095.84;;;1.77;100.00
72925;BME280;61070;50.794;7.054;2022-12-05T08:38:55;101101.38;;;1.86;100.00
72925;BME280;61070;50.794;7.054;2022-12-05T08:41:21;101100.75;;;1.95;100.00
72925;BME280;61070;50.794;7.054;2022-12-05T08:43:46;101098.31;;;2.01;100.00
72925;BME280;61070;50.794;7.054;2022-12-05T08:46:12;101097.34;;;1.97;100.00
72925;BME280;61070;50.794;7.054;2022-12-05T08:48:37;101102.88;;;2.08;100.00
72925;BME280;61070;50.794;7.054;2022-12-05T08:51:08;101101.03;;;2.36;100.00
72925;BME280;61070;50.794;7.054;2022-12-05T08:53:35;101100.16;;;2.35;100.00
72925;BME280;61070;50.794;7.054;2022-12-05T08:56:01;101106.25;;;2.36;100.00
72925;BME280;61070;50.794;7.054;2022-12-05T08:58:27;101103.59;;;2.34;100.00
72925;BME280;61070;50.794;7.054;2022-12-05T09:00:52;101107.41;;;2.45;100.00
72925;BME280;61070;50.794;7.054;2022-12-05T09:03:18;101109.28;;;2.49;100.00
72925;BME280;61070;50.794;7.054;2022-12-05T09:05:43;101109.19;;;2.48;100.00
72925;BME280;61070;50.794;7.054;2022-12-05T09:08:08;101107.47;;;2.48;100.00
72925;BME280;61070;50.794;7.054;2022-12-05T09:10:34;101109.28;;;2.49;100.00
72925;BME280;61070;50.794;7.054;2022-12-05T09:12:59;101107.94;;;2.33;100.00
72925;BME280;61070;50.794;7.054;2022-12-05T09:15:24;101104.72;;;2.42;100.00
72925;BME280;61070;50.794;7.054;2022-12-05T09:17:49;101106.56;;;2.46;100.00
72925;BME280;61070;50.794;7.054;2022-12-05T09:20:15;101114.50;;;2.49;100.00
72925;BME280;61070;50.794;7.054;2022-12-05T09:22:40;101114.31;;;2.43;100.00
72925;BME280;61070;50.794;7.054;2022-12-05T09:25:06;101119.59;;;2.45;100.00
72925;BME280;61070;50.794;7.054;2022-12-05T09:27:31;101129.38;;;2.52;100.00
72925;BME280;61070;50.794;7.054;2022-12-05T09:29:57;101125.84;;;2.50;100.00
72925;BME280;61070;50.794;7.054;2022-12-05T09:32:22;101130.41;;;2.58;100.00
72925;BME280;61070;50.794;7.054;2022-12-05T09:34:47;101140.47;;;2.43;100.00
72925;BME280;61070;50.794;7.054;2022-12-05T09:37:13;101133.44;;;2.41;100.00
72925;BME280;61070;50.794;7.054;2022-12-05T09:39:38;101134.38;;;2.44;100.00
72925;BME280;61070;50.794;7.054;2022-12-05T09:45:28;101139.63;;;2.44;100.00
72925;BME280;61070;50.794;7.054;2022-12-05T09:48:03;101138.81;;;2.47;100.00
72925;BME280;61070;50.794;7.054;2022-12-05T09:55:47;101145.16;;;2.55;100.00
72925;BME280;61070;50.794;7.054;2022-12-05T09:58:29;101140.09;;;2.61;100.00
72925;BME280;61070;50.794;7.054;2022-12-05T10:06:25;101143.50;;;2.58;100.00
72925;BME280;61070;50.794;7.054;2022-12-05T10:09:30;101140.03;;;2.59;100.00
72925;BME280;61070;50.794;7.054;2022-12-05T10:17:51;101136.38;;;2.84;100.00
72925;BME280;61070;50.794;7.054;2022-12-05T10:20:25;101133.00;;;2.90;100.00
72925;BME280;61070;50.794;7.054;2022-12-05T10:22:56;101136.59;;;2.93;100.00
72925;BME280;61070;50.794;7.054;2022-12-05T10:25:26;101142.94;;;3.03;100.00
72925;BME280;61070;50.794;7.054;2022-12-05T10:27:55;101136.47;;;2.89;100.00
72925;BME280;61070;50.794;7.054;2022-12-05T10:30:23;101144.50;;;2.95;100.00
72925;BME280;61070;50.794;7.054;2022-12-05T10:32:57;101139.69;;;2.79;100.00
72925;BME280;61070;50.794;7.054;2022-12-05T10:35:32;101132.44;;;2.69;100.00
72925;BME280;61070;50.794;7.054;2022-12-05T10:38:03;101134.47;;;2.79;100.00
72925;BME280;61070;50.794;7.054;2022-12-05T10:40:37;101138.72;;;2.75;100.00
72925;BME280;61070;50.794;7.054;2022-12-05T10:43:09;101132.75;;;2.81;100.00
72925;BME280;61070;50.794;7.054;2022-12-05T10:45:43;101137.09;;;2.80;100.00
72925;BME280;61070;50.794;7.054;2022-12-05T10:48:17;101139.63;;;2.76;100.00
72925;BME280;61070;50.794;7.054;2022-12-05T10:50:45;101146.50;;;2.72;100.00
72925;BME280;61070;50.794;7.054;2022-12-05T10:53:15;101137.66;;;2.69;100.00
72925;BME280;61070;50.794;7.054;2022-12-05T10:55:43;101140.34;;;2.72;100.00
72925;BME280;61070;50.794;7.054;2022-12-05T10:58:22;101137.09;;;2.80;100.00
72925;BME280;61070;50.794;7.054;2022-12-05T11:00:53;101135.41;;;2.82;100.00
72925;BME280;61070;50.794;7.054;2022-12-05T11:06:16;101133.66;;;2.81;100.00
72925;BME280;61070;50.794;7.054;2022-12-05T11:08:41;101128.63;;;2.89;100.00
72925;BME280;61070;50.794;7.054;2022-12-05T11:11:21;101143.41;;;2.87;100.00
72925;BME280;61070;50.794;7.054;2022-12-05T11:14:01;101134.59;;;2.83;100.00
72925;BME280;61070;50.794;7.054;2022-12-05T11:16:36;101137.16;;;2.82;100.00
72925;BME280;61070;50.794;7.054;2022-12-05T11:19:25;101140.72;;;2.84;100.00
72925;BME280;61070;50.794;7.054;2022-12-05T11:21:51;101135.56;;;2.87;100.00
72925;BME280;61070;50.794;7.054;2022-12-05T11:26:45;101146.88;;;2.86;100.00
72925;BME280;61070;50.794;7.054;2022-12-05T11:29:32;101138.84;;;2.80;100.00
72925;BME280;61070;50.794;7.054;2022-12-05T11:31:58;101140.59;;;2.81;100.00
72925;BME280;61070;50.794;7.054;2022-12-05T11:34:29;101131.28;;;2.90;100.00
72925;BME280;61070;50.794;7.054;2022-12-05T11:36:59;101138.53;;;3.01;100.00
72925;BME280;61070;50.794;7.054;2022-12-05T11:39:27;101137.69;;;3.02;100.00
72925;BME280;61070;50.794;7.054;2022-12-05T11:45:02;101137.81;;;3.06;100.00
72925;BME280;61070;50.794;7.054;2022-12-05T11:55:29;101131.91;;;3.15;100.00
72925;BME280;61070;50.794;7.054;2022-12-05T12:03:35;101118.09;;;3.20;100.00
72925;BME280;61070;50.794;7.054;2022-12-05T12:06:17;101118.03;;;3.17;100.00
72925;BME280;61070;50.794;7.054;2022-12-05T12:11:48;101116.88;;;3.06;100.00
72925;BME280;61070;50.794;7.054;2022-12-05T12:14:24;101120.16;;;2.99;100.00
72925;BME280;61070;50.794;7.054;2022-12-05T12:17:07;101114.19;;;3.05;100.00
72925;BME280;61070;50.794;7.054;2022-12-05T12:20:10;101112.34;;;3.01;100.00
72925;BME280;61070;50.794;7.054;2022-12-05T12:23:15;101115.03;;;3.04;100.00
72925;BME280;61070;50.794;7.054;2022-12-05T12:26:05;101114.56;;;3.18;100.00
72925;BME280;61070;50.794;7.054;2022-12-05T12:32:01;101116.91;;;3.08;100.00
72925;BME280;61070;50.794;7.054;2022-12-05T12:37:35;101121.84;;;2.96;100.00
72925;BME280;61070;50.794;7.054;2022-12-05T12:40:20;101115.88;;;3.03;100.00
72925;BME280;61070;50.794;7.054;2022-12-05T12:43:02;101113.97;;;2.96;100.00
72925;BME280;61070;50.794;7.054;2022-12-05T12:46:24;101120.84;;;2.92;100.00
72925;BME280;61070;50.794;7.054;2022-12-05T12:48:53;101118.19;;;2.90;100.00
72925;BME280;61070;50.794;7.054;2022-12-05T12:51:21;101123.56;;;2.95;100.00
72925;BME280;61070;50.794;7.054;2022-12-05T12:59:21;101116.94;;;3.09;100.00
72925;BME280;61070;50.794;7.054;2022-12-05T13:02:07;101114.31;;;3.09;100.00
72925;BME280;61070;50.794;7.054;2022-12-05T13:04:48;101114.47;;;3.15;100.00
72925;BME280;61070;50.794;7.054;2022-12-05T13:07:36;101111.00;;;3.16;100.00
72925;BME280;61070;50.794;7.054;2022-12-05T13:12:43;101117.19;;;3.18;100.00
72925;BME280;61070;50.794;7.054;2022-12-05T13:15:13;101125.47;;;3.37;100.00
72925;BME280;61070;50.794;7.054;2022-12-05T13:17:43;101112.72;;;3.16;100.00
72925;BME280;61070;50.794;7.054;2022-12-05T13:20:21;101113.75;;;3.21;100.00
72925;BME280;61070;50.794;7.054;2022-12-05T13:22:49;101110.06;;;3.14;100.00
72925;BME280;61070;50.794;7.054;2022-12-05T13:25:16;101111.84;;;3.15;100.00
72925;BME280;61070;50.794;7.054;2022-12-05T13:27:53;101114.69;;;3.25;100.00
72925;BME280;61070;50.794;7.054;2022-12-05T13:30:19;101119.00;;;3.22;100.00
72925;BME280;61070;50.794;7.054;2022-12-05T13:32:45;101119.25;;;3.32;100.00
72925;BME280;61070;50.794;7.054;2022-12-05T13:35:27;101124.25;;;3.22;100.00
72925;BME280;61070;50.794;7.054;2022-12-05T13:38:19;101126.06;;;3.27;100.00
72925;BME280;61070;50.794;7.054;2022-12-05T13:41:04;101131.25;;;3.24;100.00
72925;BME280;61070;50.794;7.054;2022-12-05T13:43:50;101125.91;;;3.19;100.00
72925;BME280;61070;50.794;7.054;2022-12-05T13:46:29;101121.28;;;3.09;100.00
72925;BME280;61070;50.794;7.054;2022-12-05T13:49:02;101138.81;;;3.11;100.00
72925;BME280;61070;50.794;7.054;2022-12-05T13:51:35;101132.44;;;3.02;100.00
72925;BME280;61070;50.794;7.054;2022-12-05T13:54:11;101140.34;;;3.05;100.00
72925;BME280;61070;50.794;7.054;2022-12-05T14:05:38;101140.28;;;3.02;100.00
72925;BME280;61070;50.794;7.054;2022-12-05T14:15:44;101132.94;;;2.87;100.00
72925;BME280;61070;50.794;7.054;2022-12-05T14:18:37;101134.59;;;2.83;100.00
72925;BME280;61070;50.794;7.054;2022-12-05T14:21:13;101135.59;;;2.88;100.00
72925;BME280;61070;50.794;7.054;2022-12-05T14:29:21;101138.09;;;2.84;100.00
72925;BME280;61070;50.794;7.054;2022-12-05T14:34:33;101139.63;;;2.76;100.00
72925;BME280;61070;50.794;7.054;2022-12-05T14:37:07;101136.94;;;2.73;100.00
72925;BME280;61070;50.794;7.054;2022-12-05T14:39:49;101140.44;;;2.73;100.00
72925;BME280;61070;50.794;7.054;2022-12-05T14:42:41;101141.22;;;2.71;100.00
72925;BME280;61070;50.794;7.054;2022-12-05T14:45:34;101138.81;;;2.78;100.00
72925;BME280;61070;50.794;7.054;2022-12-05T14:48:04;101139.53;;;2.73;100.00
72925;BME280;61070;50.794;7.054;2022-12-05T14:50:37;101135.31;;;2.78;100.00
72925;BME280;61070;50.794;7.054;2022-12-05T14:53:24;101140.44;;;2.73;100.00
72925;BME280;61070;50.794;7.054;2022-12-05T14:56:03;101137.94;;;2.78;100.00
72925;BME280;61070;50.794;7.054;2022-12-05T15:01:28;101137.16;;;2.82;100.00
72925;BME280;61070;50.794;7.054;2022-12-05T15:04:03;101136.94;;;2.73;100.00
72925;BME280;61070;50.794;7.054;2022-12-05T15:06:36;101140.22;;;2.66;100.00
72925;BME280;61070;50.794;7.054;2022-12-05T15:09:07;101147.13;;;2.63;100.00
72925;BME280;61070;50.794;7.054;2022-12-05T15:11:39;101151.56;;;2.66;100.00